createdAt,value
2022-10-12T10:27:16.563Z,22.39
2022-10-12T10:28:16.538Z,22.22
2022-10-12T10:29:16.487Z,22.70
2022-10-12T10:30:29.856Z,22.77
2022-10-12T10:31:16.446Z,22.97
2022-10-12T10:32:16.425Z,22.37
2022-10-12T10:33:16.402Z,21.90
2022-10-12T10:34:16.386Z,22.03
2022-10-12T10:35:16.361Z,21.99
2022-10-12T10:36:16.339Z,21.82
2022-10-12T10:37:16.415Z,21.59
2022-10-12T10:38:16.297Z,22.03
2022-10-12T10:39:16.275Z,22.37
2022-10-12T10:40:16.611Z,21.90
2022-10-12T10:41:16.236Z,22.28
2022-10-12T10:42:16.211Z,22.39
2022-10-12T10:43:16.207Z,21.90
2022-10-12T10:44:19.607Z,21.54
2022-10-12T10:45:16.460Z,21.88
2022-10-12T10:46:16.149Z,21.86
2022-10-12T10:47:16.103Z,20.77
2022-10-12T10:48:16.428Z,19.61
2022-10-12T10:49:16.059Z,19.39
2022-10-12T10:50:16.309Z,19.77
2022-10-12T10:51:16.015Z,18.87
2022-10-12T10:52:15.995Z,18.70
2022-10-12T10:53:15.973Z,19.46
2022-10-12T10:54:15.946Z,20.35
2022-10-12T10:55:15.925Z,21.10
2022-10-12T10:56:15.907Z,21.46
2022-10-12T10:57:15.884Z,21.40
2022-10-12T10:58:15.859Z,21.94
2022-10-12T10:59:15.862Z,21.92
2022-10-12T11:00:41.538Z,21.91
2022-10-12T11:01:15.855Z,22.24
2022-10-12T11:02:15.772Z,22.37
2022-10-12T11:03:15.795Z,22.75
2022-10-12T11:04:15.728Z,22.94
2022-10-12T11:05:15.922Z,23.09
2022-10-12T11:06:15.684Z,22.30
2022-10-12T11:07:15.659Z,22.22
2022-10-12T11:08:15.635Z,21.88
2022-10-12T11:09:15.637Z,21.90
2022-10-12T11:10:15.591Z,22.24
2022-10-12T11:11:15.575Z,21.96
2022-10-12T11:12:15.547Z,22.39
2022-10-12T11:13:15.525Z,22.70
2022-10-12T11:14:15.504Z,23.23
2022-10-12T11:15:15.501Z,23.42
2022-10-12T11:16:15.459Z,22.72
2022-10-12T11:17:15.437Z,22.21
2022-10-12T11:18:15.415Z,20.61
2022-10-12T11:19:15.392Z,19.68
2022-10-12T11:20:18.852Z,20.10
2022-10-12T11:21:15.346Z,20.61
2022-10-12T11:22:15.326Z,20.97
2022-10-12T11:23:15.303Z,21.72
2022-10-12T11:24:15.279Z,22.06
2022-10-12T11:25:15.257Z,22.28
2022-10-12T11:26:15.237Z,22.35
2022-10-12T11:27:15.215Z,22.36
2022-10-12T11:28:15.234Z,21.54
2022-10-12T11:29:15.171Z,21.35
2022-10-12T11:30:15.146Z,21.27
2022-10-12T11:31:15.144Z,20.11
2022-10-12T11:32:15.228Z,19.31
2022-10-12T11:33:15.081Z,19.80
2022-10-12T11:34:15.061Z,19.94
2022-10-12T11:35:15.034Z,18.92
2022-10-12T11:36:15.010Z,19.29
2022-10-12T11:37:19.556Z,20.38
2022-10-12T11:38:15.471Z,20.82
2022-10-12T11:39:17.082Z,21.37
2022-10-12T11:40:14.924Z,21.77
2022-10-12T11:41:36.542Z,21.82
2022-10-12T11:42:22.851Z,22.21
2022-10-12T11:43:14.861Z,22.68
2022-10-12T11:44:14.831Z,22.75
2022-10-12T11:45:14.819Z,22.77
2022-10-12T11:46:14.788Z,21.58
2022-10-12T11:47:14.789Z,20.03
2022-10-12T11:48:14.743Z,20.06
2022-10-12T11:49:14.717Z,19.56
2022-10-12T11:50:14.696Z,19.81
2022-10-12T11:51:14.671Z,20.58
2022-10-12T11:52:14.648Z,21.22
2022-10-12T11:53:14.624Z,21.62
2022-10-12T11:54:14.967Z,22.20
2022-10-12T11:55:14.576Z,22.47
2022-10-12T11:56:14.558Z,22.95
2022-10-12T11:57:14.532Z,23.13
2022-10-12T11:58:14.509Z,23.10
2022-10-12T11:59:14.484Z,22.88
2022-10-12T12:00:14.459Z,22.30
2022-10-12T12:01:14.437Z,22.35
2022-10-12T12:02:14.419Z,22.21
2022-10-12T12:03:14.520Z,21.92
2022-10-12T12:04:39.983Z,21.99
2022-10-12T12:05:16.722Z,21.96
2022-10-12T12:06:14.325Z,22.15
2022-10-12T12:07:14.306Z,22.05
2022-10-12T12:08:14.282Z,22.30
2022-10-12T12:09:14.310Z,22.25
2022-10-12T12:10:14.237Z,22.12
2022-10-12T12:11:14.213Z,22.36
2022-10-12T12:12:14.191Z,22.76
2022-10-12T12:13:14.168Z,22.94
2022-10-12T12:14:14.147Z,22.20
2022-10-12T12:15:14.123Z,22.21
2022-10-12T12:16:14.098Z,22.30
2022-10-12T12:17:14.079Z,22.52
2022-10-12T12:18:14.053Z,22.98
2022-10-12T12:19:14.054Z,23.19
2022-10-12T12:20:14.010Z,23.33
2022-10-12T12:21:13.984Z,23.54
2022-10-12T12:22:13.962Z,23.93
2022-10-12T12:23:13.945Z,24.05
2022-10-12T12:24:13.922Z,23.79
2022-10-12T12:25:13.944Z,23.70
2022-10-12T12:26:16.891Z,22.88
2022-10-12T12:27:13.850Z,22.65
2022-10-12T12:28:13.864Z,22.60
2022-10-12T12:29:13.808Z,22.18
2022-10-12T12:30:13.785Z,22.33
2022-10-12T12:31:13.762Z,22.15
2022-10-12T12:32:13.746Z,21.88
2022-10-12T12:33:13.719Z,22.20
2022-10-12T12:34:13.702Z,21.12
2022-10-12T12:35:13.826Z,21.65
2022-10-12T12:36:13.647Z,21.59
2022-10-12T12:37:13.632Z,21.52
2022-10-12T12:38:13.605Z,21.25
2022-10-12T12:39:13.580Z,21.22
2022-10-12T12:40:13.560Z,21.16
2022-10-12T12:41:13.537Z,20.29
2022-10-12T12:42:13.514Z,19.68
2022-10-12T12:43:13.493Z,19.91
2022-10-12T12:44:13.467Z,20.39
2022-10-12T12:45:13.445Z,20.89
2022-10-12T12:46:13.418Z,21.64
2022-10-12T12:47:43.865Z,21.27
2022-10-12T12:48:13.373Z,21.10
2022-10-12T12:49:13.353Z,20.87
2022-10-12T12:50:13.329Z,21.04
2022-10-12T12:51:13.324Z,21.53
2022-10-12T12:52:13.283Z,21.77
2022-10-12T12:53:13.259Z,21.67
2022-10-12T12:54:13.237Z,21.82
2022-10-12T12:55:13.214Z,21.64
2022-10-12T12:56:13.188Z,21.86
2022-10-12T12:57:13.166Z,21.72
2022-10-12T12:58:13.148Z,21.92
2022-10-12T12:59:13.121Z,21.86
2022-10-12T13:00:13.298Z,21.86
2022-10-12T13:01:13.162Z,21.82
2022-10-12T13:02:13.052Z,21.90
2022-10-12T13:03:13.034Z,21.43
2022-10-12T13:04:13.006Z,21.42
2022-10-12T13:05:12.992Z,21.19
2022-10-12T13:06:12.958Z,21.42
2022-10-12T13:07:12.960Z,21.54
2022-10-12T13:08:12.913Z,21.74
2022-10-12T13:09:12.887Z,21.80
2022-10-12T13:10:12.867Z,22.09
2022-10-12T13:11:12.846Z,21.84
2022-10-12T13:12:12.820Z,21.88
2022-10-12T13:13:12.800Z,22.05
2022-10-12T13:14:12.775Z,22.35
2022-10-12T13:15:12.750Z,22.30
2022-10-12T13:16:19.540Z,21.94
2022-10-12T13:18:28.471Z,22.03
2022-10-12T13:19:12.661Z,21.35
2022-10-12T13:20:12.635Z,21.17
2022-10-12T13:21:12.616Z,20.89
2022-10-12T13:22:12.591Z,21.04
2022-10-12T13:23:12.619Z,20.89
2022-10-12T13:24:12.552Z,20.74
2022-10-12T13:25:12.524Z,20.21
2022-10-12T13:26:12.505Z,20.11
2022-10-12T13:27:12.480Z,20.17
2022-10-12T13:28:12.481Z,20.17
2022-10-12T13:29:12.431Z,20.29
2022-10-12T13:30:12.407Z,20.10
2022-10-12T13:31:12.384Z,20.24
2022-10-12T13:32:12.363Z,20.52
2022-10-12T13:33:12.339Z,20.41
2022-10-12T13:34:12.315Z,20.67
2022-10-12T13:35:12.292Z,20.76
2022-10-12T13:36:12.268Z,20.66
2022-10-12T13:37:12.269Z,20.95
2022-10-12T13:38:12.223Z,21.21
2022-10-12T13:39:12.198Z,21.22
2022-10-12T13:40:12.175Z,21.09
2022-10-12T13:41:12.151Z,20.52
2022-10-12T13:42:12.129Z,20.36
2022-10-12T13:43:12.104Z,20.33
2022-10-12T13:44:12.079Z,20.18
2022-10-12T13:45:12.060Z,19.95
2022-10-12T13:46:12.039Z,20.03
2022-10-12T13:47:12.015Z,19.78
2022-10-12T13:48:11.988Z,20.06
2022-10-12T13:49:11.988Z,20.51
2022-10-12T13:50:11.940Z,20.55
2022-10-12T13:51:11.919Z,20.55
2022-10-12T13:52:11.892Z,20.41
2022-10-12T13:53:11.887Z,20.54
2022-10-12T13:54:11.848Z,20.57
2022-10-12T13:55:11.824Z,20.79
2022-10-12T13:56:11.799Z,20.84
2022-10-12T13:57:11.783Z,20.97
2022-10-12T13:58:11.755Z,20.82
2022-10-12T13:59:13.365Z,21.09
2022-10-12T14:00:11.708Z,21.37
2022-10-12T14:01:11.746Z,21.29
2022-10-12T14:02:11.658Z,20.79
2022-10-12T14:03:11.634Z,20.43
2022-10-12T14:04:11.614Z,20.17
2022-10-12T14:05:11.588Z,20.21
2022-10-12T14:06:11.565Z,20.33
2022-10-12T14:07:11.545Z,20.14
2022-10-12T14:08:11.520Z,20.24
2022-10-12T14:09:11.514Z,20.13
2022-10-12T14:10:11.472Z,20.05
2022-10-12T14:11:11.450Z,20.03
2022-10-12T14:12:11.427Z,20.10
2022-10-12T14:13:11.401Z,20.10
2022-10-12T14:14:11.379Z,20.11
2022-10-12T14:15:11.356Z,20.38
2022-10-12T14:17:11.407Z,20.24
2022-10-12T14:18:11.283Z,20.08
2022-10-12T14:19:11.259Z,19.94
2022-10-12T14:20:11.236Z,19.78
2022-10-12T14:21:11.212Z,19.55
2022-10-12T14:22:11.190Z,19.44
2022-10-12T14:23:11.166Z,19.28
2022-10-12T14:24:11.145Z,19.39
2022-10-12T14:25:11.148Z,19.16
2022-10-12T14:26:11.097Z,19.16
2022-10-12T14:27:11.076Z,19.43
2022-10-12T14:28:11.095Z,19.54
2022-10-12T14:29:11.029Z,19.63
2022-10-12T14:30:11.007Z,19.84
2022-10-12T14:31:10.980Z,20.08
2022-10-12T14:32:10.960Z,20.08
2022-10-12T14:33:11.465Z,20.14
2022-10-12T14:34:12.480Z,20.21
2022-10-12T14:35:10.891Z,20.24
2022-10-12T14:36:10.861Z,20.21
2022-10-12T14:37:10.840Z,20.28
2022-10-12T14:38:10.819Z,20.26
2022-10-12T14:39:10.796Z,20.26
2022-10-12T14:40:10.772Z,20.10
2022-10-12T14:41:10.776Z,20.31
2022-10-12T14:42:10.725Z,20.14
2022-10-12T14:43:10.822Z,20.06
2022-10-12T14:44:11.172Z,19.94
2022-10-12T14:45:10.649Z,19.88
2022-10-12T14:46:10.633Z,19.94
2022-10-12T14:47:10.859Z,19.98
2022-10-12T14:48:10.633Z,19.96
2022-10-12T14:49:10.564Z,19.91
2022-10-12T14:50:10.537Z,19.95
2022-10-12T14:51:13.172Z,19.95
2022-10-12T14:52:10.492Z,19.54
2022-10-12T14:53:10.468Z,19.54
2022-10-12T14:54:10.442Z,19.65
2022-10-12T14:55:10.421Z,19.62
2022-10-12T14:56:10.395Z,19.65
2022-10-12T14:57:10.723Z,19.61
2022-10-12T14:58:10.351Z,19.39
2022-10-12T14:59:10.325Z,19.19
2022-10-12T15:00:10.301Z,19.19
2022-10-12T15:01:10.400Z,19.19
2022-10-12T15:02:10.254Z,19.50
2022-10-12T15:03:10.230Z,19.76
2022-10-12T15:04:10.208Z,19.98
2022-10-12T15:05:10.184Z,20.14
2022-10-12T15:06:10.165Z,20.13
2022-10-12T15:07:10.457Z,19.99
2022-10-12T15:08:10.160Z,20.08
2022-10-12T15:09:10.087Z,20.11
2022-10-12T15:10:10.063Z,20.16
2022-10-12T15:11:10.043Z,20.01
2022-10-12T15:12:10.024Z,19.84
2022-10-12T15:13:10.017Z,19.96
2022-10-12T15:14:09.971Z,20.02
2022-10-12T15:15:09.947Z,19.95
2022-10-12T15:16:09.921Z,19.92
2022-10-12T15:17:10.176Z,19.94
2022-10-12T15:18:09.880Z,19.86
2022-10-12T15:19:09.857Z,19.74
2022-10-12T15:20:09.836Z,19.33
2022-10-12T15:21:09.809Z,18.95
2022-10-12T15:22:09.781Z,18.48
2022-10-12T15:23:09.763Z,18.11
2022-10-12T15:24:09.734Z,17.89
2022-10-12T15:25:09.715Z,17.62
2022-10-12T15:26:09.683Z,17.36
2022-10-12T15:27:09.774Z,17.16
2022-10-12T15:28:09.634Z,16.89
2022-10-12T15:29:09.644Z,16.75
2022-10-12T15:30:09.590Z,16.68
2022-10-12T15:31:17.401Z,16.56
2022-10-12T15:32:09.539Z,16.38
2022-10-12T15:33:09.514Z,16.33
2022-10-12T15:34:09.496Z,16.21
2022-10-12T15:35:09.469Z,16.08
2022-10-12T15:36:09.549Z,15.94
2022-10-12T15:37:09.563Z,15.89
2022-10-12T15:38:09.401Z,15.82
2022-10-12T15:39:09.373Z,15.80
2022-10-12T15:40:09.348Z,15.68
2022-10-12T15:41:09.323Z,15.56
2022-10-12T15:42:09.296Z,15.39
2022-10-12T15:43:09.316Z,15.32
2022-10-12T15:44:09.249Z,15.28
2022-10-12T15:45:09.379Z,15.17
2022-10-12T15:46:09.197Z,15.06
2022-10-12T15:47:09.174Z,15.02
2022-10-12T15:48:09.151Z,14.89
2022-10-12T15:49:16.231Z,14.83
2022-10-12T15:50:09.146Z,14.84
2022-10-12T15:51:09.078Z,14.70
2022-10-12T15:52:09.049Z,14.65
2022-10-12T15:53:09.021Z,14.57
2022-10-12T15:54:08.995Z,14.40
2022-10-12T15:55:08.969Z,14.21
2022-10-12T15:56:08.946Z,14.17
2022-10-12T15:57:08.918Z,14.03
2022-10-12T15:58:08.893Z,13.95
2022-10-12T15:59:08.868Z,13.89
2022-10-12T16:00:08.848Z,13.67
2022-10-12T16:01:09.015Z,13.52
2022-10-12T16:02:08.793Z,13.48
2022-10-12T16:03:08.769Z,13.38
2022-10-12T16:04:08.894Z,13.25
2022-10-12T16:05:08.715Z,13.10
2022-10-12T16:06:08.756Z,13.05
2022-10-12T16:07:08.983Z,12.89
2022-10-12T16:08:08.638Z,12.89
2022-10-12T16:09:08.609Z,12.78
2022-10-12T16:10:08.587Z,12.65
2022-10-12T16:11:08.560Z,12.52
2022-10-12T16:12:08.532Z,12.42
2022-10-12T16:13:08.511Z,12.31
2022-10-12T16:14:08.479Z,12.23
2022-10-12T16:15:08.452Z,12.07
2022-10-12T16:16:08.426Z,12.04
2022-10-12T16:17:08.420Z,11.98
2022-10-12T16:18:08.375Z,12.02
2022-10-12T16:19:08.350Z,11.98
2022-10-12T16:20:08.319Z,11.95
2022-10-12T16:21:08.292Z,11.82
2022-10-12T16:22:08.269Z,11.82
2022-10-12T16:23:08.239Z,11.79
2022-10-12T16:24:08.212Z,11.72
2022-10-12T16:27:21.698Z,11.57
2022-10-12T16:27:22.235Z,11.61
2022-10-12T16:28:27.633Z,11.61
2022-10-12T16:31:38.623Z,11.17
2022-10-12T16:32:23.811Z,11.14
2022-10-12T16:34:10.386Z,11.03
2022-10-12T16:34:25.714Z,10.97
2022-10-12T16:36:18.834Z,10.78
2022-10-12T16:36:24.380Z,-40.00
2022-10-12T16:39:22.527Z,10.45
2022-10-12T16:39:25.043Z,10.40
2022-10-12T16:40:33.166Z,10.38
2022-10-12T16:41:23.424Z,10.27
2022-10-12T16:42:23.597Z,10.27
2022-10-12T16:43:57.205Z,10.18
2022-10-12T16:44:26.105Z,10.18
2022-10-12T16:45:29.078Z,10.18
2022-10-12T16:47:48.043Z,10.11
2022-10-12T16:47:48.552Z,10.11
2022-10-12T16:49:09.879Z,10.11
2022-10-12T16:49:48.488Z,9.99
2022-10-12T16:50:59.086Z,9.96
2022-10-12T16:51:54.441Z,9.87
2022-10-12T16:56:28.750Z,9.57
2022-10-12T16:58:09.995Z,9.53
2022-10-12T16:58:10.486Z,9.60
2022-10-12T17:02:47.732Z,9.47
2022-10-12T17:02:48.499Z,9.31
2022-10-12T17:04:18.671Z,9.29
2022-10-12T17:05:09.172Z,9.31
2022-10-12T17:06:13.058Z,9.31
2022-10-12T17:07:12.450Z,9.20
2022-10-12T17:11:10.319Z,9.04
2022-10-12T17:13:02.581Z,9.01
2022-10-12T17:13:03.034Z,9.08
2022-10-12T17:14:54.134Z,9.04
2022-10-12T17:16:14.343Z,9.01
2022-10-12T17:16:36.571Z,8.84
2022-10-12T17:27:31.426Z,9.08
2022-10-12T17:27:31.441Z,8.95
2022-10-12T17:28:28.492Z,9.11
2022-10-12T17:30:49.480Z,8.86
2022-10-12T17:37:03.660Z,8.76
2022-10-12T17:37:04.127Z,8.52
2022-10-12T17:38:08.084Z,8.65
2022-10-12T17:40:32.238Z,8.71
2022-10-12T17:40:32.702Z,8.66
2022-10-12T17:42:26.289Z,8.52
2022-10-12T17:44:04.083Z,8.62
2022-10-12T17:44:34.767Z,8.58
2022-10-12T17:45:50.561Z,8.47
2022-10-12T17:47:17.189Z,8.48
2022-10-12T17:47:22.705Z,8.41
2022-10-12T17:49:47.354Z,8.33
2022-10-12T17:49:47.824Z,8.38
2022-10-12T17:50:47.796Z,8.23
2022-10-12T17:53:11.487Z,8.18
2022-10-12T17:53:44.967Z,8.18
2022-10-12T17:54:27.032Z,8.10
2022-10-12T17:55:29.582Z,8.08
2022-10-12T17:56:14.181Z,8.10
2022-10-12T17:57:11.924Z,8.07
2022-10-12T17:58:58.290Z,8.07
2022-10-12T17:59:17.273Z,8.04
2022-10-12T18:02:49.073Z,8.08
2022-10-12T18:02:49.542Z,8.16
2022-10-12T18:03:51.164Z,8.19
2022-10-12T18:11:29.611Z,8.29
2022-10-12T18:11:30.080Z,8.20
2022-10-12T18:12:33.534Z,8.08
2022-10-12T18:14:24.700Z,8.07
2022-10-12T18:14:30.741Z,8.10
2022-10-12T18:15:31.856Z,8.02
2022-10-12T18:18:44.428Z,7.85
2022-10-12T18:18:44.914Z,7.64
2022-10-12T18:20:20.326Z,7.77
2022-10-12T18:23:21.325Z,7.60
2022-10-12T18:25:59.876Z,7.46
2022-10-12T18:26:00.778Z,7.43
2022-10-12T18:27:03.173Z,7.46
2022-10-12T18:28:00.285Z,7.34
2022-10-12T18:29:42.851Z,7.35
2022-10-12T18:30:00.863Z,7.37
2022-10-12T18:31:27.748Z,7.28
2022-10-12T18:32:00.223Z,7.27
2022-10-12T18:35:55.587Z,7.13
2022-10-12T18:35:56.279Z,7.13
2022-10-12T18:50:03.816Z,7.25
2022-10-12T18:50:09.280Z,-40.00
2022-10-12T18:51:13.530Z,6.85
2022-10-12T18:55:00.148Z,6.79
2022-10-12T18:55:15.092Z,6.84
2022-10-12T18:56:00.588Z,6.84
2022-10-12T18:58:25.760Z,6.74
2022-10-12T18:58:26.229Z,6.91
2022-10-12T18:59:26.209Z,6.85
2022-10-12T19:05:12.991Z,6.85
2022-10-12T19:05:13.652Z,6.80
2022-10-12T19:06:16.329Z,6.92
2022-10-12T19:07:13.621Z,6.94
2022-10-12T19:09:36.404Z,6.88
2022-10-12T19:10:01.670Z,6.92
2022-10-12T19:11:02.044Z,6.87
2022-10-12T19:12:00.327Z,6.87
2022-10-12T19:12:38.643Z,6.81
2022-10-12T19:13:41.318Z,6.73
2022-10-12T19:14:54.946Z,6.64
2022-10-12T19:17:42.909Z,6.56
2022-10-12T19:17:58.228Z,6.56
2022-10-12T19:19:50.456Z,6.62
2022-10-12T19:19:50.995Z,6.56
2022-10-12T19:22:19.895Z,6.48
2022-10-12T19:24:03.605Z,6.40
2022-10-12T19:24:08.061Z,6.49
2022-10-12T19:25:27.302Z,6.38
2022-10-12T19:33:01.043Z,6.28
2022-10-12T19:33:05.769Z,6.22
2022-10-12T19:34:46.297Z,6.30
2022-10-12T19:35:05.534Z,6.28
2022-10-12T19:36:47.152Z,6.14
2022-10-12T19:37:20.055Z,6.12
2022-10-12T19:38:44.816Z,6.12
2022-10-12T19:39:16.143Z,6.14
2022-10-12T19:40:22.128Z,6.15
2022-10-12T19:42:04.884Z,6.15
2022-10-12T19:42:10.688Z,6.15
2022-10-12T19:44:17.154Z,6.11
2022-10-12T19:44:17.625Z,6.12
2022-10-12T19:45:19.301Z,6.22
2022-10-12T19:47:26.477Z,6.21
2022-10-12T19:47:27.147Z,6.21
2022-10-12T19:48:30.388Z,6.17
2022-10-12T19:53:52.375Z,6.14
2022-10-12T19:53:53.015Z,6.17
2022-10-12T19:54:52.984Z,6.14
2022-10-12T19:58:10.414Z,6.18
2022-10-12T19:58:10.885Z,6.11
2022-10-12T19:59:50.687Z,6.01
2022-10-12T20:00:16.170Z,5.99
2022-10-12T20:01:26.287Z,5.90
2022-10-12T20:02:38.575Z,5.94
2022-10-12T20:05:05.482Z,5.93
2022-10-12T20:05:26.842Z,5.86
2022-10-12T20:06:06.116Z,5.91
2022-10-12T20:08:15.678Z,5.85
2022-10-12T20:08:50.360Z,6.04
2022-10-12T20:11:53.534Z,6.08
2022-10-12T20:11:54.007Z,6.15
2022-10-12T20:17:29.385Z,6.01
2022-10-12T20:17:30.203Z,6.08
2022-10-12T20:19:04.247Z,5.97
2022-10-12T20:19:34.721Z,5.96
2022-10-12T20:23:59.856Z,5.71
2022-10-12T20:26:31.743Z,5.72
2022-10-12T20:26:32.211Z,5.65
2022-10-12T20:27:32.302Z,5.75
2022-10-12T20:28:32.164Z,5.72
2022-10-12T20:30:06.144Z,5.89
2022-10-12T20:39:36.376Z,5.83
2022-10-12T20:39:36.841Z,5.74
2022-10-12T20:40:56.672Z,5.68
2022-10-12T20:41:39.020Z,5.71
2022-10-12T20:44:50.346Z,5.67
2022-10-12T20:44:50.730Z,5.53
2022-10-12T20:47:09.425Z,5.49
2022-10-12T20:47:09.892Z,5.46
2022-10-12T20:48:24.442Z,5.51
2022-10-12T20:49:35.512Z,5.63
2022-10-12T20:52:07.627Z,5.48
2022-10-12T20:52:08.417Z,5.54
2022-10-12T20:53:44.923Z,5.48
2022-10-12T20:55:01.302Z,5.43
2022-10-12T20:55:29.746Z,5.45
2022-10-12T20:59:17.026Z,5.46
2022-10-12T20:59:54.469Z,5.46
2022-10-12T21:01:37.675Z,5.48
2022-10-12T21:01:40.572Z,5.40
2022-10-12T21:06:28.217Z,-40.00
